createdAt,value
2023-04-08T00:02:01.688Z,75.53
2023-04-08T00:04:29.514Z,75.69
2023-04-08T00:06:57.754Z,75.84
2023-04-08T00:09:25.610Z,76.13
2023-04-08T00:11:53.872Z,76.14
2023-04-08T00:14:21.614Z,76.10
2023-04-08T00:16:49.602Z,76.26
2023-04-08T00:19:17.320Z,76.39
2023-04-08T00:21:44.982Z,76.25
2023-04-08T00:24:13.127Z,75.78
2023-04-08T00:26:40.948Z,75.57
2023-04-08T00:29:08.704Z,75.45
2023-04-08T00:31:36.806Z,75.07
2023-04-08T00:34:04.530Z,74.74
2023-04-08T00:36:32.455Z,74.33
2023-04-08T00:39:00.261Z,74.41
2023-04-08T00:41:28.101Z,74.34
2023-04-08T00:43:55.740Z,74.47
2023-04-08T00:46:23.544Z,74.57
2023-04-08T00:48:51.392Z,74.17
2023-04-08T00:51:19.884Z,74.10
2023-04-08T00:53:47.698Z,74.10
2023-04-08T00:56:15.414Z,74.42
2023-04-08T00:58:43.286Z,74.41
2023-04-08T01:01:20.021Z,74.81
2023-04-08T01:03:56.103Z,75.04
2023-04-08T01:06:47.071Z,75.05
2023-04-08T01:09:23.624Z,75.03
2023-04-08T01:11:53.835Z,75.13
2023-04-08T01:14:27.039Z,75.15
2023-04-08T01:17:00.200Z,74.89
2023-04-08T01:19:35.867Z,74.93
2023-04-08T01:22:19.980Z,74.94
2023-04-08T01:24:51.213Z,75.11
2023-04-08T01:27:19.490Z,75.20
2023-04-08T01:29:49.205Z,75.31
2023-04-08T01:32:17.338Z,75.40
2023-04-08T01:34:45.679Z,75.65
2023-04-08T01:37:15.448Z,75.91
2023-04-08T01:39:44.663Z,76.23
2023-04-08T01:42:13.741Z,76.35
2023-04-08T01:44:42.743Z,76.58
2023-04-08T01:47:13.442Z,76.75
2023-04-08T01:49:42.891Z,77.01
2023-04-08T01:52:11.674Z,77.33
2023-04-08T01:54:39.493Z,77.72
2023-04-08T01:57:12.325Z,78.09
2023-04-08T01:59:41.733Z,78.46
2023-04-08T02:02:11.163Z,78.80
2023-04-08T02:04:39.140Z,79.09
2023-04-08T02:07:07.121Z,79.36
2023-04-08T02:09:34.772Z,79.63
2023-04-08T02:12:02.681Z,79.92
2023-04-08T02:14:31.361Z,80.24
2023-04-08T02:17:47.253Z,80.53
2023-04-08T02:20:21.897Z,80.81
2023-04-08T02:23:09.648Z,80.97
2023-04-08T02:25:41.586Z,81.20
2023-04-08T02:28:11.594Z,81.46
2023-04-08T02:30:43.388Z,81.75
2023-04-08T02:33:14.213Z,82.08
2023-04-08T02:35:42.894Z,82.33
2023-04-08T02:38:11.272Z,82.49
2023-04-08T02:40:39.164Z,82.68
2023-04-08T02:43:07.330Z,82.80
2023-04-08T02:45:41.462Z,82.97
2023-04-08T02:48:09.651Z,83.18
2023-04-08T02:50:37.836Z,83.36
2023-04-08T02:53:05.887Z,83.49
2023-04-08T02:55:33.571Z,83.59
2023-04-08T02:58:01.616Z,83.68
2023-04-08T03:00:32.508Z,83.78
2023-04-08T03:03:00.612Z,83.90
2023-04-08T03:05:28.526Z,84.02
2023-04-08T03:07:58.377Z,84.10
2023-04-08T03:10:26.564Z,84.19
2023-04-08T03:12:54.280Z,84.31
2023-04-08T03:15:22.017Z,84.42
2023-04-08T03:17:49.799Z,84.51
2023-04-08T03:20:17.602Z,84.61
2023-04-08T03:22:45.831Z,84.70
2023-04-08T03:25:13.968Z,84.80
2023-04-08T03:27:41.662Z,84.93
2023-04-08T03:30:10.152Z,85.04
2023-04-08T03:32:37.972Z,85.14
2023-04-08T03:35:06.277Z,85.23
2023-04-08T03:37:34.027Z,85.36
2023-04-08T03:40:01.937Z,85.42
2023-04-08T03:42:29.932Z,85.50
2023-04-08T03:44:58.600Z,85.60
2023-04-08T03:47:27.264Z,85.64
2023-04-08T03:49:54.980Z,85.69
2023-04-08T03:52:23.040Z,85.71
2023-04-08T03:54:50.993Z,85.76
2023-04-08T03:57:18.731Z,85.82
2023-04-08T03:59:46.514Z,85.89
2023-04-08T04:02:14.323Z,85.96
2023-04-08T04:04:42.088Z,86.03
2023-04-08T04:07:09.913Z,86.12
2023-04-08T04:09:37.601Z,86.18
2023-04-08T04:12:05.586Z,86.21
2023-04-08T04:14:33.416Z,86.21
2023-04-08T04:17:01.065Z,86.25
2023-04-08T04:19:32.063Z,86.27
2023-04-08T04:21:59.912Z,86.29
2023-04-08T04:24:27.649Z,86.34
2023-04-08T04:26:55.479Z,86.44
2023-04-08T04:29:23.385Z,86.51
2023-04-08T04:31:51.270Z,86.65
2023-04-08T04:34:19.142Z,86.76
2023-04-08T04:36:46.857Z,86.86
2023-04-08T04:39:14.676Z,86.99
2023-04-08T04:41:42.449Z,87.12
2023-04-08T04:44:10.266Z,87.22
2023-04-08T04:46:37.952Z,87.27
2023-04-08T04:49:06.134Z,87.29
2023-04-08T04:51:33.953Z,87.34
2023-04-08T04:54:01.717Z,87.32
2023-04-08T04:56:29.401Z,87.31
2023-04-08T04:58:57.109Z,87.25
2023-04-08T05:01:24.837Z,87.21
2023-04-08T05:03:52.596Z,87.14
2023-04-08T05:06:20.523Z,87.00
2023-04-08T05:08:48.429Z,87.04
2023-04-08T05:11:18.465Z,87.29
2023-04-08T05:13:46.164Z,87.12
2023-04-08T05:16:14.073Z,85.86
2023-04-08T05:18:42.045Z,82.80
2023-04-08T05:21:09.921Z,79.57
2023-04-08T05:23:37.808Z,76.06
2023-04-08T05:26:08.947Z,72.62
2023-04-08T05:28:36.672Z,70.41
2023-04-08T05:31:04.515Z,68.38
2023-04-08T05:33:32.276Z,65.49
2023-04-08T05:35:59.959Z,63.69
2023-04-08T05:38:27.773Z,61.45
2023-04-08T05:40:56.306Z,59.69
2023-04-08T05:43:25.019Z,57.78
2023-04-08T05:45:53.654Z,56.81
2023-04-08T05:48:21.654Z,56.05
2023-04-08T05:50:49.880Z,54.76
2023-04-08T05:53:18.309Z,54.06
2023-04-08T05:55:46.576Z,53.29
2023-04-08T05:58:16.263Z,52.25
2023-04-08T06:00:44.657Z,50.82
2023-04-08T06:03:13.000Z,49.38
2023-04-08T06:05:41.718Z,48.65
2023-04-08T06:08:09.986Z,48.35
2023-04-08T06:10:38.497Z,47.88
2023-04-08T06:13:06.806Z,46.90
2023-04-08T06:15:36.930Z,46.86
2023-04-08T06:18:05.529Z,45.99
2023-04-08T06:20:33.853Z,45.51
2023-04-08T06:23:02.020Z,45.59
2023-04-08T06:25:30.291Z,45.67
2023-04-08T06:27:58.594Z,44.75
2023-04-08T06:30:26.927Z,44.48
2023-04-08T06:32:54.973Z,44.72
2023-04-08T06:35:23.232Z,44.24
2023-04-08T06:37:51.598Z,44.17
2023-04-08T06:40:19.898Z,43.70
2023-04-08T06:42:48.655Z,44.09
2023-04-08T06:45:17.094Z,44.76
2023-04-08T06:47:45.592Z,45.02
2023-04-08T06:50:13.792Z,45.44
2023-04-08T06:52:41.942Z,45.23
2023-04-08T06:55:10.143Z,45.87
2023-04-08T06:57:38.850Z,46.53
2023-04-08T07:00:07.983Z,46.01
2023-04-08T07:02:36.382Z,45.73
2023-04-08T07:05:06.355Z,47.42
2023-04-08T07:07:34.659Z,49.11
2023-04-08T07:10:03.105Z,48.58
2023-04-08T07:12:31.317Z,47.23
2023-04-08T07:14:59.880Z,47.70
2023-04-08T07:17:28.580Z,46.83
2023-04-08T07:19:57.220Z,46.93
2023-04-08T07:22:26.137Z,46.05
2023-04-08T07:24:54.657Z,45.33
2023-04-08T07:27:23.005Z,45.35
2023-04-08T07:29:58.443Z,45.26
2023-04-08T07:32:27.736Z,44.30
2023-04-08T07:34:56.403Z,44.51
2023-04-08T07:37:24.715Z,44.43
2023-04-08T07:39:53.574Z,46.16
2023-04-08T07:42:22.375Z,46.13
2023-04-08T07:44:50.734Z,45.78
2023-04-08T07:47:20.954Z,45.63
2023-04-08T07:49:49.164Z,45.47
2023-04-08T07:52:18.024Z,46.24
2023-04-08T07:54:46.787Z,47.49
2023-04-08T07:57:15.266Z,46.88
2023-04-08T07:59:43.927Z,45.21
2023-04-08T08:02:12.553Z,45.09
2023-04-08T08:04:41.844Z,45.05
2023-04-08T08:07:10.232Z,44.73
2023-04-08T08:09:38.383Z,45.37
2023-04-08T08:12:06.653Z,44.35
2023-04-08T08:14:35.131Z,43.10
2023-04-08T08:17:04.532Z,43.83
2023-04-08T08:19:37.465Z,44.22
2023-04-08T08:22:05.857Z,42.93
2023-04-08T08:24:33.991Z,41.93
2023-04-08T08:27:05.125Z,40.88
2023-04-08T08:29:34.614Z,43.33
2023-04-08T08:32:04.476Z,43.76
2023-04-08T08:34:33.952Z,43.31
2023-04-08T08:37:02.481Z,43.27
2023-04-08T08:39:31.300Z,40.50
2023-04-08T08:41:59.784Z,40.69
2023-04-08T08:44:31.229Z,41.69
2023-04-08T08:47:01.859Z,41.09
2023-04-08T08:49:30.133Z,39.96
2023-04-08T08:52:00.549Z,38.00
2023-04-08T08:54:29.202Z,38.59
2023-04-08T08:56:57.988Z,38.52
2023-04-08T08:59:26.260Z,39.42
2023-04-08T09:01:54.711Z,38.85
2023-04-08T09:04:23.268Z,38.45
2023-04-08T09:07:10.195Z,37.72
2023-04-08T09:10:04.529Z,36.88
2023-04-08T09:12:33.292Z,35.96
2023-04-08T09:15:06.503Z,35.73
2023-04-08T09:17:38.417Z,35.13
2023-04-08T09:20:16.937Z,36.25
2023-04-08T09:22:54.680Z,36.91
2023-04-08T09:25:28.252Z,38.73
2023-04-08T09:27:56.834Z,40.50
2023-04-08T09:30:28.911Z,40.72
2023-04-08T09:33:45.849Z,38.93
2023-04-08T09:36:18.723Z,36.82
2023-04-08T09:38:56.600Z,37.61
2023-04-08T09:41:28.617Z,37.16
2023-04-08T09:44:27.264Z,36.01
2023-04-08T09:47:32.932Z,34.34
2023-04-08T09:50:28.187Z,34.85
2023-04-08T09:53:30.330Z,35.30
2023-04-08T09:56:00.539Z,35.06
2023-04-08T09:58:34.370Z,37.06
2023-04-08T10:01:03.314Z,35.56
2023-04-08T10:03:50.527Z,35.56
2023-04-08T10:06:23.161Z,34.86
2023-04-08T10:08:51.719Z,35.98
2023-04-08T10:11:20.213Z,35.53
2023-04-08T10:14:05.731Z,35.59
2023-04-08T10:16:36.107Z,35.26
2023-04-08T10:19:39.112Z,34.29
2023-04-08T10:22:29.888Z,34.00
2023-04-08T10:25:19.885Z,34.59
2023-04-08T10:27:50.201Z,34.98
2023-04-08T10:30:27.775Z,34.02
2023-04-08T10:32:57.698Z,33.16
2023-04-08T10:35:42.775Z,31.87
2023-04-08T10:38:13.370Z,31.29
2023-04-08T10:40:43.606Z,30.72
2023-04-08T10:43:13.651Z,30.39
2023-04-08T10:45:43.143Z,30.76
2023-04-08T10:48:18.104Z,31.47
2023-04-08T10:51:12.620Z,31.09
2023-04-08T10:53:43.491Z,30.80
2023-04-08T10:56:15.824Z,29.34
2023-04-08T10:58:52.572Z,30.34
2023-04-08T11:01:34.989Z,30.04
2023-04-08T11:04:12.462Z,30.04
2023-04-08T11:09:04.494Z,30.39
2023-04-08T11:11:32.536Z,30.52
2023-04-08T11:14:02.042Z,29.26
2023-04-08T11:16:31.186Z,29.91
2023-04-08T11:18:59.075Z,29.80
2023-04-08T11:21:30.102Z,29.49
2023-04-08T11:23:58.804Z,29.07
2023-04-08T11:26:27.707Z,28.67
2023-04-08T11:28:57.626Z,27.83
2023-04-08T11:31:26.259Z,28.29
2023-04-08T11:33:58.526Z,28.84
2023-04-08T11:36:29.137Z,27.71
2023-04-08T11:38:57.253Z,27.15
2023-04-08T11:41:25.260Z,26.98
2023-04-08T11:43:57.131Z,26.76
2023-04-08T11:46:25.625Z,26.47
2023-04-08T11:49:02.009Z,26.94
2023-04-08T11:51:32.116Z,25.70
2023-04-08T11:54:01.066Z,25.71
2023-04-08T11:56:30.812Z,25.60
2023-04-08T11:58:58.683Z,24.36
2023-04-08T12:01:27.156Z,25.05
2023-04-08T12:03:59.578Z,25.46
2023-04-08T12:06:28.538Z,25.01
2023-04-08T12:08:56.797Z,24.05
2023-04-08T12:11:25.021Z,24.39
2023-04-08T12:13:53.900Z,25.11
2023-04-08T12:16:21.992Z,26.03
2023-04-08T12:18:50.438Z,26.58
2023-04-08T12:21:18.416Z,25.46
2023-04-08T12:23:46.435Z,25.60
2023-04-08T12:26:14.909Z,25.52
2023-04-08T12:28:42.668Z,25.84
2023-04-08T12:31:10.742Z,26.60
2023-04-08T12:33:38.558Z,28.10
2023-04-08T12:36:06.858Z,29.49
2023-04-08T12:38:34.965Z,29.22
2023-04-08T12:41:02.826Z,28.20
2023-04-08T12:43:32.759Z,27.00
2023-04-08T12:46:01.983Z,27.32
2023-04-08T12:48:30.223Z,28.07
2023-04-08T12:50:59.162Z,28.46
2023-04-08T12:53:27.017Z,28.71
2023-04-08T12:55:57.781Z,28.96
2023-04-08T12:58:25.956Z,28.99
2023-04-08T13:00:55.620Z,28.46
2023-04-08T13:03:24.617Z,28.84
2023-04-08T13:05:52.665Z,29.64
2023-04-08T13:08:20.509Z,30.11
2023-04-08T13:10:48.501Z,29.95
2023-04-08T13:13:16.322Z,28.91
2023-04-08T13:15:44.167Z,28.76
2023-04-08T13:18:12.075Z,29.05
2023-04-08T13:20:40.009Z,29.54
2023-04-08T13:23:08.472Z,30.01
2023-04-08T13:25:36.308Z,30.49
2023-04-08T13:28:04.371Z,30.91
2023-04-08T13:30:32.142Z,31.28
2023-04-08T13:33:00.027Z,32.09
2023-04-08T13:35:27.941Z,32.50
2023-04-08T13:37:55.741Z,32.97
2023-04-08T13:40:24.279Z,34.23
2023-04-08T13:42:52.125Z,34.45
2023-04-08T13:45:20.502Z,34.97
2023-04-08T13:47:48.618Z,34.93
2023-04-08T13:50:16.339Z,35.49
2023-04-08T13:52:44.047Z,35.78
2023-04-08T13:55:11.889Z,36.22
2023-04-08T13:57:39.658Z,35.95
2023-04-08T14:00:08.262Z,36.77
2023-04-08T14:02:36.541Z,36.92
2023-04-08T14:05:04.762Z,37.16
2023-04-08T14:07:32.855Z,37.68
2023-04-08T14:10:00.682Z,38.62
2023-04-08T14:12:28.423Z,38.99
2023-04-08T14:15:13.505Z,39.30
2023-04-08T14:17:42.225Z,39.63
2023-04-08T14:20:10.321Z,39.86
2023-04-08T14:22:38.073Z,40.33
2023-04-08T14:25:06.329Z,41.21
2023-04-08T14:27:34.261Z,41.84
2023-04-08T14:30:04.519Z,41.42
2023-04-08T14:32:32.585Z,41.96
2023-04-08T14:35:00.545Z,41.82
2023-04-08T14:37:28.577Z,41.10
2023-04-08T14:39:56.670Z,41.61
2023-04-08T14:42:24.418Z,41.41
2023-04-08T14:44:52.414Z,41.29
2023-04-08T14:47:20.418Z,40.71
2023-04-08T14:49:48.858Z,40.22
2023-04-08T14:52:16.672Z,40.08
2023-04-08T14:54:45.308Z,39.32
2023-04-08T14:57:13.308Z,39.21
2023-04-08T14:59:41.176Z,39.72
2023-04-08T15:02:09.291Z,39.92
2023-04-08T15:04:37.160Z,40.15
2023-04-08T15:07:05.474Z,40.48
2023-04-08T15:09:33.562Z,40.50
2023-04-08T15:12:01.935Z,40.90
2023-04-08T15:14:29.702Z,41.49
2023-04-08T15:16:57.444Z,41.24
2023-04-08T15:19:25.320Z,41.31
2023-04-08T15:21:53.054Z,41.34
2023-04-08T15:24:21.025Z,41.77
2023-04-08T15:26:48.803Z,42.45
2023-04-08T15:29:17.110Z,42.71
2023-04-08T15:31:44.825Z,43.17
2023-04-08T15:34:12.590Z,43.26
2023-04-08T15:36:40.475Z,43.97
2023-04-08T15:39:08.232Z,44.54
2023-04-08T15:41:36.118Z,44.39
2023-04-08T15:44:03.916Z,44.69
2023-04-08T15:46:31.921Z,45.70
2023-04-08T15:49:01.393Z,45.72
2023-04-08T15:51:29.475Z,45.59
2023-04-08T15:53:57.445Z,46.39
2023-04-08T15:56:27.024Z,46.47
2023-04-08T15:58:55.023Z,46.71
2023-04-08T16:01:22.975Z,47.00
2023-04-08T16:03:51.073Z,46.61
2023-04-08T16:06:18.998Z,46.46
2023-04-08T16:08:47.434Z,46.54
2023-04-08T16:11:15.539Z,46.88
2023-04-08T16:13:43.424Z,46.92
2023-04-08T16:16:12.456Z,46.81
2023-04-08T16:18:41.808Z,47.09
2023-04-08T16:21:09.958Z,47.18
2023-04-08T16:23:38.414Z,46.79
2023-04-08T16:26:08.010Z,46.67
2023-04-08T16:28:37.192Z,46.50
2023-04-08T16:31:05.142Z,46.85
2023-04-08T16:33:33.457Z,47.18
2023-04-08T16:36:01.768Z,46.85
2023-04-08T16:38:29.849Z,47.16
2023-04-08T16:40:59.119Z,46.81
2023-04-08T16:43:28.064Z,46.97
2023-04-08T16:45:56.306Z,47.19
2023-04-08T16:48:24.536Z,47.19
2023-04-08T16:50:52.643Z,47.21
2023-04-08T16:53:20.964Z,47.32
2023-04-08T16:55:48.991Z,47.14
2023-04-08T16:58:17.219Z,47.09
2023-04-08T17:00:45.714Z,47.20
2023-04-08T17:03:14.035Z,46.82
2023-04-08T17:05:42.486Z,47.14
2023-04-08T17:08:10.713Z,47.37
2023-04-08T17:10:38.875Z,48.21
2023-04-08T17:13:07.081Z,48.37
2023-04-08T17:15:36.546Z,48.60
2023-04-08T17:18:04.898Z,48.87
2023-04-08T17:20:33.303Z,48.92
2023-04-08T17:23:01.576Z,48.91
2023-04-08T17:25:29.661Z,48.90
2023-04-08T17:27:58.344Z,49.58
2023-04-08T17:30:26.719Z,49.96
2023-04-08T17:32:56.592Z,50.43
2023-04-08T17:35:25.174Z,50.83
2023-04-08T17:37:53.369Z,51.27
2023-04-08T17:40:22.171Z,51.63
2023-04-08T17:42:50.755Z,52.00
2023-04-08T17:45:19.032Z,52.52
2023-04-08T17:47:47.672Z,52.77
2023-04-08T17:50:16.097Z,52.75
2023-04-08T17:52:48.550Z,53.21
2023-04-08T17:55:16.996Z,54.15
2023-04-08T17:57:45.307Z,55.39
2023-04-08T18:00:13.806Z,56.48
2023-04-08T18:02:42.763Z,58.48
2023-04-08T18:05:12.579Z,59.78
2023-04-08T18:07:40.417Z,60.86
2023-04-08T18:10:09.984Z,62.31
2023-04-08T18:12:37.970Z,63.47
2023-04-08T18:15:06.474Z,64.68
2023-04-08T18:17:35.454Z,66.55
2023-04-08T18:20:03.667Z,68.26
2023-04-08T18:22:31.525Z,69.22
2023-04-08T18:24:59.269Z,70.29
2023-04-08T18:27:27.416Z,71.60
2023-04-08T18:29:55.329Z,73.08
2023-04-08T18:32:23.130Z,74.25
2023-04-08T18:39:20.439Z,76.49
2023-04-08T18:41:48.485Z,76.92
2023-04-08T18:44:16.563Z,77.60
2023-04-08T18:46:45.766Z,78.46
2023-04-08T18:49:15.137Z,79.15
2023-04-08T18:56:05.070Z,80.17
2023-04-08T18:58:33.614Z,80.56
2023-04-08T19:01:06.909Z,80.83
2023-04-08T19:03:36.376Z,81.15
2023-04-08T19:06:08.311Z,81.26
2023-04-08T19:08:36.562Z,81.66
2023-04-08T19:11:05.291Z,81.98
2023-04-08T19:13:33.329Z,82.07
2023-04-08T19:16:01.144Z,82.24
2023-04-08T19:18:29.115Z,82.39
2023-04-08T19:20:57.024Z,82.46
2023-04-08T19:23:24.824Z,82.72
2023-04-08T19:25:53.051Z,82.89
2023-04-08T19:28:21.673Z,83.09
2023-04-08T19:30:50.939Z,83.42
2023-04-08T19:33:19.527Z,83.44
2023-04-08T19:35:48.780Z,83.59
2023-04-08T19:38:16.759Z,83.51
2023-04-08T19:40:44.720Z,83.35
2023-04-08T19:43:12.569Z,83.24
2023-04-08T19:45:41.486Z,83.61
2023-04-08T19:48:09.372Z,83.76
2023-04-08T19:50:38.119Z,83.61
2023-04-08T19:53:06.157Z,83.35
2023-04-08T19:55:37.374Z,83.43
2023-04-08T19:58:05.842Z,83.60
2023-04-08T20:00:33.647Z,83.86
2023-04-08T20:03:02.078Z,84.04
2023-04-08T20:05:30.643Z,84.22
2023-04-08T20:07:58.362Z,84.31
2023-04-08T20:10:26.117Z,84.39
2023-04-08T20:12:54.049Z,84.39
2023-04-08T20:15:25.208Z,84.27
2023-04-08T20:17:54.301Z,84.31
2023-04-08T20:26:41.965Z,85.17
2023-04-08T20:30:25.668Z,85.18
2023-04-08T20:33:53.620Z,85.33
2023-04-08T20:36:24.879Z,85.20
2023-04-08T20:38:55.262Z,85.16
2023-04-08T20:41:44.525Z,85.38
2023-04-08T20:44:41.669Z,85.64
2023-04-08T20:47:12.523Z,85.83
2023-04-08T20:50:30.694Z,86.06
2023-04-08T20:53:52.543Z,86.24
2023-04-08T20:57:31.254Z,86.37
2023-04-08T21:01:04.180Z,86.51
2023-04-08T21:04:47.572Z,86.82
2023-04-08T21:08:36.885Z,86.94
2023-04-08T21:12:27.072Z,86.87
2023-04-08T21:15:45.516Z,86.82
2023-04-08T21:19:28.980Z,86.92
2023-04-08T21:23:25.298Z,87.08
2023-04-08T21:26:52.868Z,87.13
2023-04-08T21:30:21.935Z,87.29
2023-04-08T21:34:23.729Z,87.45
2023-04-08T21:37:38.429Z,87.90
2023-04-08T21:41:19.597Z,87.99
2023-04-08T21:45:04.828Z,88.03
2023-04-08T21:48:37.042Z,88.21
2023-04-08T22:02:12.010Z,88.59
2023-04-08T22:06:02.503Z,88.56
2023-04-08T22:08:58.511Z,88.51
2023-04-08T22:12:36.852Z,88.59
2023-04-08T22:27:28.461Z,88.79
2023-04-08T22:30:36.023Z,88.88
2023-04-08T22:33:58.809Z,88.89
2023-04-08T22:37:36.048Z,88.99
2023-04-08T22:41:25.324Z,88.83
2023-04-08T22:45:12.400Z,88.83
2023-04-08T22:48:29.052Z,88.87
2023-04-08T22:52:08.492Z,88.77
2023-04-08T22:55:45.354Z,88.75
2023-04-08T22:59:41.616Z,88.79
2023-04-08T23:02:58.407Z,88.83
2023-04-08T23:06:47.112Z,88.84
2023-04-08T23:10:18.471Z,88.89
2023-04-08T23:13:58.058Z,88.89
2023-04-08T23:17:40.834Z,88.97
2023-04-08T23:21:16.352Z,88.98
2023-04-08T23:25:04.815Z,89.01
2023-04-08T23:39:15.856Z,89.03
2023-04-08T23:42:20.512Z,88.98
2023-04-08T23:45:42.982Z,88.95
2023-04-08T23:50:36.197Z,88.90
